sensor_id;sensor_type;location;lat;lon;timestamp;P1;durP1;ratioP1;P2;durP2;ratioP2
61915;SDS011;47868;51.326;6.550;2022-11-18T00:01:47;5.85;;;2.83;;
61915;SDS011;47868;51.326;6.550;2022-11-18T00:04:13;10.75;;;3.65;;
61915;SDS011;47868;51.326;6.550;2022-11-18T00:06:38;6.90;;;3.67;;
61915;SDS011;47868;51.326;6.550;2022-11-18T00:09:04;5.63;;;3.33;;
61915;SDS011;47868;51.326;6.550;2022-11-18T00:11:30;6.13;;;2.90;;
61915;SDS011;47868;51.326;6.550;2022-11-18T00:14:15;5.28;;;2.80;;
61915;SDS011;47868;51.326;6.550;2022-11-18T00:19:20;5.03;;;3.53;;
61915;SDS011;47868;51.326;6.550;2022-11-18T00:21:49;6.07;;;2.92;;
61915;SDS011;47868;51.326;6.550;2022-11-18T00:24:14;9.25;;;2.92;;
61915;SDS011;47868;51.326;6.550;2022-11-18T00:26:40;9.75;;;3.67;;
61915;SDS011;47868;51.326;6.550;2022-11-18T00:29:07;5.57;;;3.17;;
61915;SDS011;47868;51.326;6.550;2022-11-18T00:31:34;7.18;;;3.03;;
61915;SDS011;47868;51.326;6.550;2022-11-18T00:34:00;5.97;;;3.22;;
61915;SDS011;47868;51.326;6.550;2022-11-18T00:36:26;6.47;;;3.50;;
61915;SDS011;47868;51.326;6.550;2022-11-18T00:38:52;9.68;;;3.13;;
61915;SDS011;47868;51.326;6.550;2022-11-18T00:41:18;9.57;;;4.03;;
61915;SDS011;47868;51.326;6.550;2022-11-18T00:43:44;7.15;;;3.58;;
61915;SDS011;47868;51.326;6.550;2022-11-18T00:46:10;6.70;;;3.60;;
61915;SDS011;47868;51.326;6.550;2022-11-18T00:48:36;6.65;;;3.35;;
61915;SDS011;47868;51.326;6.550;2022-11-18T00:51:10;5.47;;;3.42;;
61915;SDS011;47868;51.326;6.550;2022-11-18T00:53:40;7.70;;;3.65;;
61915;SDS011;47868;51.326;6.550;2022-11-18T00:58:42;5.65;;;3.72;;
61915;SDS011;47868;51.326;6.550;2022-11-18T01:01:08;6.88;;;3.67;;
61915;SDS011;47868;51.326;6.550;2022-11-18T01:03:34;8.48;;;3.90;;
61915;SDS011;47868;51.326;6.550;2022-11-18T01:05:59;7.65;;;3.92;;
61915;SDS011;47868;51.326;6.550;2022-11-18T01:08:25;7.57;;;3.58;;
61915;SDS011;47868;51.326;6.550;2022-11-18T01:10:50;10.05;;;3.70;;
61915;SDS011;47868;51.326;6.550;2022-11-18T01:13:17;8.13;;;3.60;;
61915;SDS011;47868;51.326;6.550;2022-11-18T01:18:23;6.97;;;3.80;;
61915;SDS011;47868;51.326;6.550;2022-11-18T01:20:50;8.52;;;3.55;;
61915;SDS011;47868;51.326;6.550;2022-11-18T01:23:16;8.48;;;3.08;;
61915;SDS011;47868;51.326;6.550;2022-11-18T01:25:44;8.15;;;3.95;;
61915;SDS011;47868;51.326;6.550;2022-11-18T01:28:12;8.15;;;4.13;;
61915;SDS011;47868;51.326;6.550;2022-11-18T01:30:38;7.05;;;3.50;;
61915;SDS011;47868;51.326;6.550;2022-11-18T01:33:05;6.43;;;3.63;;
61915;SDS011;47868;51.326;6.550;2022-11-18T01:35:38;10.43;;;3.83;;
61915;SDS011;47868;51.326;6.550;2022-11-18T01:38:06;10.23;;;3.47;;
61915;SDS011;47868;51.326;6.550;2022-11-18T01:40:34;9.05;;;4.13;;
61915;SDS011;47868;51.326;6.550;2022-11-18T01:43:00;9.63;;;4.10;;
61915;SDS011;47868;51.326;6.550;2022-11-18T01:45:38;5.35;;;3.53;;
61915;SDS011;47868;51.326;6.550;2022-11-18T01:50:41;5.50;;;3.60;;
61915;SDS011;47868;51.326;6.550;2022-11-18T01:53:18;12.07;;;3.92;;
61915;SDS011;47868;51.326;6.550;2022-11-18T01:55:53;10.00;;;4.10;;
61915;SDS011;47868;51.326;6.550;2022-11-18T01:58:26;6.97;;;3.88;;
61915;SDS011;47868;51.326;6.550;2022-11-18T02:00:58;8.73;;;4.07;;
61915;SDS011;47868;51.326;6.550;2022-11-18T02:03:24;5.28;;;3.70;;
61915;SDS011;47868;51.326;6.550;2022-11-18T02:05:50;5.55;;;3.70;;
61915;SDS011;47868;51.326;6.550;2022-11-18T02:08:17;8.20;;;3.95;;
61915;SDS011;47868;51.326;6.550;2022-11-18T02:10:44;7.30;;;3.78;;
61915;SDS011;47868;51.326;6.550;2022-11-18T02:13:10;11.32;;;4.35;;
61915;SDS011;47868;51.326;6.550;2022-11-18T02:18:32;6.72;;;4.28;;
61915;SDS011;47868;51.326;6.550;2022-11-18T02:32:33;7.20;;;3.80;;
61915;SDS011;47868;51.326;6.550;2022-11-18T02:35:17;7.25;;;3.78;;
61915;SDS011;47868;51.326;6.550;2022-11-18T02:38:08;11.15;;;3.88;;
61915;SDS011;47868;51.326;6.550;2022-11-18T02:40:44;6.28;;;3.47;;
61915;SDS011;47868;51.326;6.550;2022-11-18T02:43:18;8.23;;;4.28;;
61915;SDS011;47868;51.326;6.550;2022-11-18T02:45:49;7.57;;;3.75;;
61915;SDS011;47868;51.326;6.550;2022-11-18T02:48:19;5.93;;;3.83;;
61915;SDS011;47868;51.326;6.550;2022-11-18T02:50:48;9.85;;;3.78;;
61915;SDS011;47868;51.326;6.550;2022-11-18T02:53:15;10.02;;;4.13;;
61915;SDS011;47868;51.326;6.550;2022-11-18T02:55:44;9.50;;;4.22;;
61915;SDS011;47868;51.326;6.550;2022-11-18T02:58:12;12.25;;;4.20;;
61915;SDS011;47868;51.326;6.550;2022-11-18T03:00:41;7.68;;;3.90;;
61915;SDS011;47868;51.326;6.550;2022-11-18T03:03:20;8.25;;;3.88;;
61915;SDS011;47868;51.326;6.550;2022-11-18T03:05:48;7.82;;;3.53;;
61915;SDS011;47868;51.326;6.550;2022-11-18T03:08:44;7.55;;;3.72;;
61915;SDS011;47868;51.326;6.550;2022-11-18T03:11:21;9.20;;;3.42;;
61915;SDS011;47868;51.326;6.550;2022-11-18T03:22:10;7.95;;;3.70;;
61915;SDS011;47868;51.326;6.550;2022-11-18T03:28:07;6.65;;;3.53;;
61915;SDS011;47868;51.326;6.550;2022-11-18T03:30:30;8.98;;;3.55;;
61915;SDS011;47868;51.326;6.550;2022-11-18T03:33:03;9.32;;;4.13;;
61915;SDS011;47868;51.326;6.550;2022-11-18T03:35:39;9.00;;;4.30;;
61915;SDS011;47868;51.326;6.550;2022-11-18T03:38:10;9.40;;;3.80;;
61915;SDS011;47868;51.326;6.550;2022-11-18T03:40:42;7.03;;;3.67;;
61915;SDS011;47868;51.326;6.550;2022-11-18T03:43:15;6.38;;;3.22;;
61915;SDS011;47868;51.326;6.550;2022-11-18T03:48:24;7.60;;;4.13;;
61915;SDS011;47868;51.326;6.550;2022-11-18T03:50:54;9.95;;;4.00;;
61915;SDS011;47868;51.326;6.550;2022-11-18T03:53:32;6.18;;;3.95;;
61915;SDS011;47868;51.326;6.550;2022-11-18T03:56:04;11.27;;;4.07;;
61915;SDS011;47868;51.326;6.550;2022-11-18T03:58:35;10.38;;;3.97;;
61915;SDS011;47868;51.326;6.550;2022-11-18T04:01:10;7.38;;;3.88;;
61915;SDS011;47868;51.326;6.550;2022-11-18T04:03:40;9.40;;;4.00;;
61915;SDS011;47868;51.326;6.550;2022-11-18T04:06:14;15.02;;;4.25;;
61915;SDS011;47868;51.326;6.550;2022-11-18T04:08:44;11.70;;;3.63;;
61915;SDS011;47868;51.326;6.550;2022-11-18T04:11:18;9.10;;;3.67;;
61915;SDS011;47868;51.326;6.550;2022-11-18T04:14:18;12.73;;;4.28;;
61915;SDS011;47868;51.326;6.550;2022-11-18T04:16:47;7.78;;;3.47;;
61915;SDS011;47868;51.326;6.550;2022-11-18T04:19:15;9.88;;;3.55;;
61915;SDS011;47868;51.326;6.550;2022-11-18T04:21:41;10.25;;;3.95;;
61915;SDS011;47868;51.326;6.550;2022-11-18T04:24:06;6.15;;;3.78;;
61915;SDS011;47868;51.326;6.550;2022-11-18T04:26:32;7.43;;;3.60;;
61915;SDS011;47868;51.326;6.550;2022-11-18T04:28:58;7.35;;;4.32;;
61915;SDS011;47868;51.326;6.550;2022-11-18T04:31:23;5.32;;;3.30;;
61915;SDS011;47868;51.326;6.550;2022-11-18T04:33:49;8.48;;;3.70;;
61915;SDS011;47868;51.326;6.550;2022-11-18T04:36:15;7.30;;;3.83;;
61915;SDS011;47868;51.326;6.550;2022-11-18T04:38:40;8.75;;;3.40;;
61915;SDS011;47868;51.326;6.550;2022-11-18T04:41:06;6.88;;;3.63;;
61915;SDS011;47868;51.326;6.550;2022-11-18T04:43:31;7.03;;;3.25;;
61915;SDS011;47868;51.326;6.550;2022-11-18T04:45:57;9.82;;;4.45;;
61915;SDS011;47868;51.326;6.550;2022-11-18T04:48:22;11.63;;;3.30;;
61915;SDS011;47868;51.326;6.550;2022-11-18T04:50:48;7.25;;;3.45;;
61915;SDS011;47868;51.326;6.550;2022-11-18T04:53:13;7.18;;;3.33;;
61915;SDS011;47868;51.326;6.550;2022-11-18T04:55:39;8.50;;;4.35;;
61915;SDS011;47868;51.326;6.550;2022-11-18T04:58:05;8.32;;;3.75;;
61915;SDS011;47868;51.326;6.550;2022-11-18T05:00:30;9.13;;;3.20;;
61915;SDS011;47868;51.326;6.550;2022-11-18T05:02:56;9.50;;;3.38;;
61915;SDS011;47868;51.326;6.550;2022-11-18T05:05:21;4.20;;;3.30;;
61915;SDS011;47868;51.326;6.550;2022-11-18T05:07:47;8.75;;;3.88;;
61915;SDS011;47868;51.326;6.550;2022-11-18T05:10:12;8.25;;;3.75;;
61915;SDS011;47868;51.326;6.550;2022-11-18T05:12:38;5.30;;;2.97;;
61915;SDS011;47868;51.326;6.550;2022-11-18T05:15:13;7.80;;;3.17;;
61915;SDS011;47868;51.326;6.550;2022-11-18T05:17:39;8.00;;;3.38;;
61915;SDS011;47868;51.326;6.550;2022-11-18T05:20:06;8.60;;;3.15;;
61915;SDS011;47868;51.326;6.550;2022-11-18T05:22:32;9.10;;;3.20;;
61915;SDS011;47868;51.326;6.550;2022-11-18T05:24:57;10.13;;;3.10;;
61915;SDS011;47868;51.326;6.550;2022-11-18T05:27:23;7.03;;;3.20;;
61915;SDS011;47868;51.326;6.550;2022-11-18T05:29:48;8.07;;;3.10;;
61915;SDS011;47868;51.326;6.550;2022-11-18T05:32:14;7.25;;;3.35;;
61915;SDS011;47868;51.326;6.550;2022-11-18T05:34:40;8.43;;;3.13;;
61915;SDS011;47868;51.326;6.550;2022-11-18T05:37:06;11.40;;;3.38;;
61915;SDS011;47868;51.326;6.550;2022-11-18T05:39:32;7.65;;;3.22;;
61915;SDS011;47868;51.326;6.550;2022-11-18T05:41:58;10.60;;;3.50;;
61915;SDS011;47868;51.326;6.550;2022-11-18T05:44:42;11.60;;;3.17;;
61915;SDS011;47868;51.326;6.550;2022-11-18T05:47:07;5.00;;;3.15;;
61915;SDS011;47868;51.326;6.550;2022-11-18T05:49:33;6.15;;;3.15;;
61915;SDS011;47868;51.326;6.550;2022-11-18T05:51:59;8.05;;;3.22;;
61915;SDS011;47868;51.326;6.550;2022-11-18T05:54:24;7.60;;;3.28;;
61915;SDS011;47868;51.326;6.550;2022-11-18T05:56:51;12.77;;;3.88;;
61915;SDS011;47868;51.326;6.550;2022-11-18T05:59:16;6.43;;;3.40;;
61915;SDS011;47868;51.326;6.550;2022-11-18T06:04:15;7.38;;;3.08;;
61915;SDS011;47868;51.326;6.550;2022-11-18T06:06:44;9.65;;;3.35;;
61915;SDS011;47868;51.326;6.550;2022-11-18T06:09:13;12.93;;;3.85;;
61915;SDS011;47868;51.326;6.550;2022-11-18T06:11:45;5.35;;;3.28;;
61915;SDS011;47868;51.326;6.550;2022-11-18T06:14:19;8.77;;;3.55;;
61915;SDS011;47868;51.326;6.550;2022-11-18T06:16:51;7.93;;;3.67;;
61915;SDS011;47868;51.326;6.550;2022-11-18T06:19:20;9.95;;;3.95;;
61915;SDS011;47868;51.326;6.550;2022-11-18T06:21:46;7.15;;;3.35;;
61915;SDS011;47868;51.326;6.550;2022-11-18T06:24:13;6.40;;;3.90;;
61915;SDS011;47868;51.326;6.550;2022-11-18T06:26:39;9.70;;;3.67;;
61915;SDS011;47868;51.326;6.550;2022-11-18T06:29:05;6.18;;;3.53;;
61915;SDS011;47868;51.326;6.550;2022-11-18T06:31:33;6.15;;;3.63;;
61915;SDS011;47868;51.326;6.550;2022-11-18T06:33:59;7.32;;;3.78;;
61915;SDS011;47868;51.326;6.550;2022-11-18T06:36:25;9.45;;;3.58;;
61915;SDS011;47868;51.326;6.550;2022-11-18T06:38:51;6.68;;;3.65;;
61915;SDS011;47868;51.326;6.550;2022-11-18T06:41:16;8.98;;;4.10;;
61915;SDS011;47868;51.326;6.550;2022-11-18T06:43:42;7.65;;;3.70;;
61915;SDS011;47868;51.326;6.550;2022-11-18T06:46:09;7.03;;;3.75;;
61915;SDS011;47868;51.326;6.550;2022-11-18T06:48:58;9.20;;;4.22;;
61915;SDS011;47868;51.326;6.550;2022-11-18T06:51:25;5.30;;;3.17;;
61915;SDS011;47868;51.326;6.550;2022-11-18T06:53:51;7.18;;;3.90;;
61915;SDS011;47868;51.326;6.550;2022-11-18T06:56:18;7.80;;;3.88;;
61915;SDS011;47868;51.326;6.550;2022-11-18T06:58:44;9.68;;;4.10;;
61915;SDS011;47868;51.326;6.550;2022-11-18T07:01:16;5.95;;;3.92;;
61915;SDS011;47868;51.326;6.550;2022-11-18T07:03:45;5.65;;;3.05;;
61915;SDS011;47868;51.326;6.550;2022-11-18T07:06:12;7.35;;;3.65;;
61915;SDS011;47868;51.326;6.550;2022-11-18T07:08:41;5.03;;;3.58;;
61915;SDS011;47868;51.326;6.550;2022-11-18T07:11:09;5.53;;;3.65;;
61915;SDS011;47868;51.326;6.550;2022-11-18T07:13:37;39.30;;;6.03;;
61915;SDS011;47868;51.326;6.550;2022-11-18T07:18:33;101.32;;;13.80;;
61915;SDS011;47868;51.326;6.550;2022-11-18T07:21:01;27.42;;;6.15;;
61915;SDS011;47868;51.326;6.550;2022-11-18T07:23:31;19.52;;;4.95;;
61915;SDS011;47868;51.326;6.550;2022-11-18T07:25:58;40.88;;;7.20;;
61915;SDS011;47868;51.326;6.550;2022-11-18T07:28:24;45.08;;;8.35;;
61915;SDS011;47868;51.326;6.550;2022-11-18T07:30:50;93.30;;;11.35;;
61915;SDS011;47868;51.326;6.550;2022-11-18T07:33:16;50.75;;;8.27;;
61915;SDS011;47868;51.326;6.550;2022-11-18T07:35:42;91.82;;;10.90;;
61915;SDS011;47868;51.326;6.550;2022-11-18T07:38:08;24.80;;;5.38;;
61915;SDS011;47868;51.326;6.550;2022-11-18T07:40:33;7.30;;;4.70;;
61915;SDS011;47868;51.326;6.550;2022-11-18T07:42:59;16.63;;;4.30;;
61915;SDS011;47868;51.326;6.550;2022-11-18T07:45:24;8.23;;;3.75;;
61915;SDS011;47868;51.326;6.550;2022-11-18T07:47:50;11.80;;;3.80;;
61915;SDS011;47868;51.326;6.550;2022-11-18T07:50:16;8.00;;;4.00;;
61915;SDS011;47868;51.326;6.550;2022-11-18T07:52:42;11.25;;;4.53;;
61915;SDS011;47868;51.326;6.550;2022-11-18T07:55:08;5.78;;;4.45;;
61915;SDS011;47868;51.326;6.550;2022-11-18T07:57:34;4.30;;;3.75;;
61915;SDS011;47868;51.326;6.550;2022-11-18T07:59:59;11.93;;;5.13;;
61915;SDS011;47868;51.326;6.550;2022-11-18T08:02:25;7.43;;;4.38;;
61915;SDS011;47868;51.326;6.550;2022-11-18T08:04:51;7.82;;;4.30;;
61915;SDS011;47868;51.326;6.550;2022-11-18T08:07:16;8.13;;;3.70;;
61915;SDS011;47868;51.326;6.550;2022-11-18T08:09:42;13.63;;;4.00;;
61915;SDS011;47868;51.326;6.550;2022-11-18T08:12:07;4.47;;;3.85;;
61915;SDS011;47868;51.326;6.550;2022-11-18T08:14:33;9.02;;;3.97;;
61915;SDS011;47868;51.326;6.550;2022-11-18T08:16:59;6.47;;;4.10;;
61915;SDS011;47868;51.326;6.550;2022-11-18T08:19:25;8.60;;;3.65;;
61915;SDS011;47868;51.326;6.550;2022-11-18T08:21:51;48.42;;;7.90;;
61915;SDS011;47868;51.326;6.550;2022-11-18T08:24:16;37.25;;;6.57;;
61915;SDS011;47868;51.326;6.550;2022-11-18T08:26:42;28.60;;;5.82;;
61915;SDS011;47868;51.326;6.550;2022-11-18T08:29:08;77.63;;;10.35;;
61915;SDS011;47868;51.326;6.550;2022-11-18T08:31:33;99.55;;;13.93;;
61915;SDS011;47868;51.326;6.550;2022-11-18T08:34:03;127.38;;;16.98;;
61915;SDS011;47868;51.326;6.550;2022-11-18T08:36:32;84.70;;;12.73;;
61915;SDS011;47868;51.326;6.550;2022-11-18T08:39:00;57.03;;;10.13;;
61915;SDS011;47868;51.326;6.550;2022-11-18T08:41:31;52.50;;;8.80;;
61915;SDS011;47868;51.326;6.550;2022-11-18T08:43:57;22.85;;;5.63;;
61915;SDS011;47868;51.326;6.550;2022-11-18T08:46:23;19.20;;;5.57;;
61915;SDS011;47868;51.326;6.550;2022-11-18T08:48:48;40.45;;;7.07;;
61915;SDS011;47868;51.326;6.550;2022-11-18T08:51:14;18.00;;;5.45;;
61915;SDS011;47868;51.326;6.550;2022-11-18T08:53:40;18.88;;;5.03;;
61915;SDS011;47868;51.326;6.550;2022-11-18T08:56:06;10.35;;;3.65;;
61915;SDS011;47868;51.326;6.550;2022-11-18T08:58:36;12.50;;;4.07;;
61915;SDS011;47868;51.326;6.550;2022-11-18T09:01:05;9.43;;;4.10;;
61915;SDS011;47868;51.326;6.550;2022-11-18T09:03:31;11.65;;;4.68;;
61915;SDS011;47868;51.326;6.550;2022-11-18T09:06:04;9.77;;;4.03;;
61915;SDS011;47868;51.326;6.550;2022-11-18T09:08:34;6.53;;;3.45;;
61915;SDS011;47868;51.326;6.550;2022-11-18T09:11:04;10.23;;;3.58;;
61915;SDS011;47868;51.326;6.550;2022-11-18T09:13:31;10.77;;;4.28;;
61915;SDS011;47868;51.326;6.550;2022-11-18T09:15:57;15.32;;;4.68;;
61915;SDS011;47868;51.326;6.550;2022-11-18T09:18:24;9.50;;;4.00;;
61915;SDS011;47868;51.326;6.550;2022-11-18T09:20:53;6.45;;;3.95;;
61915;SDS011;47868;51.326;6.550;2022-11-18T09:23:23;7.03;;;3.72;;
61915;SDS011;47868;51.326;6.550;2022-11-18T09:25:55;34.45;;;6.78;;
61915;SDS011;47868;51.326;6.550;2022-11-18T09:28:22;28.90;;;5.57;;
61915;SDS011;47868;51.326;6.550;2022-11-18T09:30:48;34.58;;;5.38;;
61915;SDS011;47868;51.326;6.550;2022-11-18T09:33:14;15.32;;;4.68;;
61915;SDS011;47868;51.326;6.550;2022-11-18T09:35:41;13.73;;;4.80;;
61915;SDS011;47868;51.326;6.550;2022-11-18T09:38:07;12.57;;;3.90;;
61915;SDS011;47868;51.326;6.550;2022-11-18T09:40:33;5.57;;;3.50;;
61915;SDS011;47868;51.326;6.550;2022-11-18T09:43:20;5.05;;;3.72;;
61915;SDS011;47868;51.326;6.550;2022-11-18T09:45:52;6.35;;;3.42;;
61915;SDS011;47868;51.326;6.550;2022-11-18T09:48:24;8.48;;;4.00;;
61915;SDS011;47868;51.326;6.550;2022-11-18T09:51:11;10.85;;;4.10;;
61915;SDS011;47868;51.326;6.550;2022-11-18T09:53:38;9.00;;;2.90;;
61915;SDS011;47868;51.326;6.550;2022-11-18T09:56:11;11.10;;;4.22;;
61915;SDS011;47868;51.326;6.550;2022-11-18T09:58:39;12.95;;;6.25;;
61915;SDS011;47868;51.326;6.550;2022-11-18T10:01:09;10.73;;;4.65;;
61915;SDS011;47868;51.326;6.550;2022-11-18T10:03:37;12.43;;;5.85;;
61915;SDS011;47868;51.326;6.550;2022-11-18T10:06:20;12.32;;;6.28;;
61915;SDS011;47868;51.326;6.550;2022-11-18T10:20:20;9.27;;;3.78;;
61915;SDS011;47868;51.326;6.550;2022-11-18T10:22:55;6.22;;;3.30;;
61915;SDS011;47868;51.326;6.550;2022-11-18T10:25:27;12.75;;;3.33;;
61915;SDS011;47868;51.326;6.550;2022-11-18T10:27:52;7.50;;;3.42;;
61915;SDS011;47868;51.326;6.550;2022-11-18T10:30:21;5.97;;;3.03;;
61915;SDS011;47868;51.326;6.550;2022-11-18T10:32:55;10.80;;;3.50;;
61915;SDS011;47868;51.326;6.550;2022-11-18T10:35:28;5.65;;;2.97;;
61915;SDS011;47868;51.326;6.550;2022-11-18T10:38:06;7.93;;;3.42;;
61915;SDS011;47868;51.326;6.550;2022-11-18T10:51:34;12.15;;;3.53;;
61915;SDS011;47868;51.326;6.550;2022-11-18T10:56:42;9.20;;;3.00;;
61915;SDS011;47868;51.326;6.550;2022-11-18T10:59:16;11.07;;;2.60;;
61915;SDS011;47868;51.326;6.550;2022-11-18T11:02:28;11.05;;;2.85;;
61915;SDS011;47868;51.326;6.550;2022-11-18T11:04:55;5.90;;;2.80;;
61915;SDS011;47868;51.326;6.550;2022-11-18T11:07:42;5.38;;;2.53;;
61915;SDS011;47868;51.326;6.550;2022-11-18T11:12:51;11.13;;;3.00;;
61915;SDS011;47868;51.326;6.550;2022-11-18T11:15:19;9.15;;;3.08;;
61915;SDS011;47868;51.326;6.550;2022-11-18T11:17:53;15.43;;;3.72;;
61915;SDS011;47868;51.326;6.550;2022-11-18T11:20:44;12.98;;;3.13;;
61915;SDS011;47868;51.326;6.550;2022-11-18T11:23:10;10.20;;;2.83;;
61915;SDS011;47868;51.326;6.550;2022-11-18T11:25:42;10.52;;;3.33;;
61915;SDS011;47868;51.326;6.550;2022-11-18T11:28:13;8.57;;;2.88;;
61915;SDS011;47868;51.326;6.550;2022-11-18T11:30:44;6.82;;;3.20;;
61915;SDS011;47868;51.326;6.550;2022-11-18T11:33:36;12.50;;;3.03;;
61915;SDS011;47868;51.326;6.550;2022-11-18T11:41:41;7.78;;;2.50;;
61915;SDS011;47868;51.326;6.550;2022-11-18T11:44:23;9.05;;;2.40;;
61915;SDS011;47868;51.326;6.550;2022-11-18T11:53:19;9.30;;;2.75;;
61915;SDS011;47868;51.326;6.550;2022-11-18T11:56:03;8.43;;;2.72;;
61915;SDS011;47868;51.326;6.550;2022-11-18T12:01:34;7.30;;;2.92;;
61915;SDS011;47868;51.326;6.550;2022-11-18T12:04:11;5.55;;;2.80;;
61915;SDS011;47868;51.326;6.550;2022-11-18T12:06:50;8.45;;;2.53;;
61915;SDS011;47868;51.326;6.550;2022-11-18T12:09:20;9.77;;;2.42;;
61915;SDS011;47868;51.326;6.550;2022-11-18T12:11:54;6.50;;;2.42;;
61915;SDS011;47868;51.326;6.550;2022-11-18T12:14:56;12.75;;;2.83;;
61915;SDS011;47868;51.326;6.550;2022-11-18T12:17:33;10.63;;;2.78;;
61915;SDS011;47868;51.326;6.550;2022-11-18T12:23:23;8.63;;;3.00;;
61915;SDS011;47868;51.326;6.550;2022-11-18T12:33:53;5.85;;;2.63;;
61915;SDS011;47868;51.326;6.550;2022-11-18T12:38:54;12.52;;;2.80;;
61915;SDS011;47868;51.326;6.550;2022-11-18T12:44:27;7.63;;;3.53;;
61915;SDS011;47868;51.326;6.550;2022-11-18T12:46:54;7.13;;;3.25;;
61915;SDS011;47868;51.326;6.550;2022-11-18T12:51:50;4.03;;;2.63;;
61915;SDS011;47868;51.326;6.550;2022-11-18T12:57:02;4.65;;;2.60;;
61915;SDS011;47868;51.326;6.550;2022-11-18T12:59:39;5.88;;;2.85;;
61915;SDS011;47868;51.326;6.550;2022-11-18T13:04:40;6.75;;;2.70;;
61915;SDS011;47868;51.326;6.550;2022-11-18T13:07:09;13.75;;;3.10;;
61915;SDS011;47868;51.326;6.550;2022-11-18T13:09:55;8.35;;;3.00;;
61915;SDS011;47868;51.326;6.550;2022-11-18T13:12:23;6.88;;;2.90;;
61915;SDS011;47868;51.326;6.550;2022-11-18T13:14:51;9.32;;;2.67;;
61915;SDS011;47868;51.326;6.550;2022-11-18T13:17:37;10.32;;;3.25;;
61915;SDS011;47868;51.326;6.550;2022-11-18T13:20:23;6.30;;;3.05;;
61915;SDS011;47868;51.326;6.550;2022-11-18T13:23:01;8.02;;;2.90;;
61915;SDS011;47868;51.326;6.550;2022-11-18T13:25:52;6.10;;;3.15;;
61915;SDS011;47868;51.326;6.550;2022-11-18T13:28:24;8.38;;;3.90;;
61915;SDS011;47868;51.326;6.550;2022-11-18T13:30:53;8.35;;;2.75;;
61915;SDS011;47868;51.326;6.550;2022-11-18T13:33:28;8.48;;;2.88;;
61915;SDS011;47868;51.326;6.550;2022-11-18T13:36:01;11.32;;;5.60;;
61915;SDS011;47868;51.326;6.550;2022-11-18T13:38:27;13.25;;;5.53;;
61915;SDS011;47868;51.326;6.550;2022-11-18T13:40:52;10.70;;;3.30;;
61915;SDS011;47868;51.326;6.550;2022-11-18T13:43:38;8.38;;;2.70;;
61915;SDS011;47868;51.326;6.550;2022-11-18T13:46:05;7.72;;;3.30;;
61915;SDS011;47868;51.326;6.550;2022-11-18T13:48:50;10.10;;;3.40;;
61915;SDS011;47868;51.326;6.550;2022-11-18T13:51:19;7.28;;;2.58;;
61915;SDS011;47868;51.326;6.550;2022-11-18T13:53:47;6.45;;;3.03;;
61915;SDS011;47868;51.326;6.550;2022-11-18T13:56:20;5.22;;;2.95;;
61915;SDS011;47868;51.326;6.550;2022-11-18T14:01:16;10.43;;;3.03;;
61915;SDS011;47868;51.326;6.550;2022-11-18T14:06:31;11.30;;;3.28;;
61915;SDS011;47868;51.326;6.550;2022-11-18T14:09:04;8.93;;;2.78;;
61915;SDS011;47868;51.326;6.550;2022-11-18T14:14:36;4.70;;;2.80;;
61915;SDS011;47868;51.326;6.550;2022-11-18T14:17:04;7.82;;;3.22;;
61915;SDS011;47868;51.326;6.550;2022-11-18T14:19:40;9.82;;;3.10;;
61915;SDS011;47868;51.326;6.550;2022-11-18T14:22:10;5.43;;;2.83;;
61915;SDS011;47868;51.326;6.550;2022-11-18T14:24:57;9.68;;;3.55;;
61915;SDS011;47868;51.326;6.550;2022-11-18T14:27:36;11.15;;;3.35;;
61915;SDS011;47868;51.326;6.550;2022-11-18T14:33:10;6.00;;;2.83;;
61915;SDS011;47868;51.326;6.550;2022-11-18T14:35:43;8.80;;;3.13;;
61915;SDS011;47868;51.326;6.550;2022-11-18T14:40:56;8.65;;;3.42;;
61915;SDS011;47868;51.326;6.550;2022-11-18T14:43:24;9.43;;;3.28;;
61915;SDS011;47868;51.326;6.550;2022-11-18T14:45:51;7.07;;;3.33;;
61915;SDS011;47868;51.326;6.550;2022-11-18T14:48:22;10.75;;;3.70;;
61915;SDS011;47868;51.326;6.550;2022-11-18T14:50:50;9.65;;;3.55;;
61915;SDS011;47868;51.326;6.550;2022-11-18T14:53:16;9.60;;;3.83;;
61915;SDS011;47868;51.326;6.550;2022-11-18T14:55:43;9.93;;;3.78;;
61915;SDS011;47868;51.326;6.550;2022-11-18T14:58:12;8.13;;;3.70;;
61915;SDS011;47868;51.326;6.550;2022-11-18T15:00:39;8.40;;;3.35;;
61915;SDS011;47868;51.326;6.550;2022-11-18T15:03:06;10.88;;;3.65;;
61915;SDS011;47868;51.326;6.550;2022-11-18T15:05:31;9.55;;;3.20;;
61915;SDS011;47868;51.326;6.550;2022-11-18T15:07:57;9.40;;;3.90;;
61915;SDS011;47868;51.326;6.550;2022-11-18T15:10:23;14.85;;;4.10;;
61915;SDS011;47868;51.326;6.550;2022-11-18T15:12:48;10.10;;;3.50;;
61915;SDS011;47868;51.326;6.550;2022-11-18T15:15:14;7.18;;;3.95;;
61915;SDS011;47868;51.326;6.550;2022-11-18T15:17:40;11.65;;;4.63;;
61915;SDS011;47868;51.326;6.550;2022-11-18T15:20:05;12.68;;;4.97;;
61915;SDS011;47868;51.326;6.550;2022-11-18T15:22:34;12.13;;;4.13;;
61915;SDS011;47868;51.326;6.550;2022-11-18T15:24:59;9.95;;;4.70;;
61915;SDS011;47868;51.326;6.550;2022-11-18T15:27:25;7.80;;;4.70;;
61915;SDS011;47868;51.326;6.550;2022-11-18T15:29:50;9.43;;;5.38;;
61915;SDS011;47868;51.326;6.550;2022-11-18T15:32:16;6.15;;;4.07;;
61915;SDS011;47868;51.326;6.550;2022-11-18T15:34:42;8.15;;;4.13;;
61915;SDS011;47868;51.326;6.550;2022-11-18T15:37:09;9.82;;;4.18;;
61915;SDS011;47868;51.326;6.550;2022-11-18T15:39:36;14.77;;;5.18;;
61915;SDS011;47868;51.326;6.550;2022-11-18T15:42:02;7.53;;;4.10;;
61915;SDS011;47868;51.326;6.550;2022-11-18T15:44:27;10.35;;;4.45;;
61915;SDS011;47868;51.326;6.550;2022-11-18T15:46:53;10.50;;;4.72;;
61915;SDS011;47868;51.326;6.550;2022-11-18T15:49:19;8.68;;;4.38;;
61915;SDS011;47868;51.326;6.550;2022-11-18T15:51:45;13.45;;;4.90;;
61915;SDS011;47868;51.326;6.550;2022-11-18T15:54:10;10.13;;;5.05;;
61915;SDS011;47868;51.326;6.550;2022-11-18T15:56:37;11.60;;;5.40;;
61915;SDS011;47868;51.326;6.550;2022-11-18T15:59:10;10.25;;;5.38;;
61915;SDS011;47868;51.326;6.550;2022-11-18T16:01:38;16.05;;;7.57;;
61915;SDS011;47868;51.326;6.550;2022-11-18T16:04:11;14.88;;;8.65;;
61915;SDS011;47868;51.326;6.550;2022-11-18T16:06:39;11.52;;;7.32;;
61915;SDS011;47868;51.326;6.550;2022-11-18T16:09:07;14.20;;;7.47;;
61915;SDS011;47868;51.326;6.550;2022-11-18T16:11:33;13.00;;;7.45;;
61915;SDS011;47868;51.326;6.550;2022-11-18T16:14:17;16.75;;;8.52;;
61915;SDS011;47868;51.326;6.550;2022-11-18T16:16:45;15.70;;;6.22;;
61915;SDS011;47868;51.326;6.550;2022-11-18T16:19:12;9.02;;;5.65;;
61915;SDS011;47868;51.326;6.550;2022-11-18T16:21:41;10.00;;;5.93;;
61915;SDS011;47868;51.326;6.550;2022-11-18T16:24:09;13.60;;;6.25;;
61915;SDS011;47868;51.326;6.550;2022-11-18T16:26:36;12.18;;;6.70;;
61915;SDS011;47868;51.326;6.550;2022-11-18T16:29:03;15.52;;;6.57;;
61915;SDS011;47868;51.326;6.550;2022-11-18T16:31:29;13.55;;;6.28;;
61915;SDS011;47868;51.326;6.550;2022-11-18T16:36:37;12.52;;;7.20;;
61915;SDS011;47868;51.326;6.550;2022-11-18T16:39:05;17.85;;;12.27;;
61915;SDS011;47868;51.326;6.550;2022-11-18T16:41:35;21.65;;;11.43;;
61915;SDS011;47868;51.326;6.550;2022-11-18T16:44:03;15.00;;;8.40;;
61915;SDS011;47868;51.326;6.550;2022-11-18T16:46:34;12.13;;;7.05;;
61915;SDS011;47868;51.326;6.550;2022-11-18T16:49:01;15.13;;;7.00;;
61915;SDS011;47868;51.326;6.550;2022-11-18T16:51:28;17.48;;;7.05;;
61915;SDS011;47868;51.326;6.550;2022-11-18T16:53:56;11.50;;;6.50;;
61915;SDS011;47868;51.326;6.550;2022-11-18T16:56:27;14.07;;;6.93;;
61915;SDS011;47868;51.326;6.550;2022-11-18T16:58:55;14.98;;;6.97;;
61915;SDS011;47868;51.326;6.550;2022-11-18T17:01:22;11.95;;;7.00;;
61915;SDS011;47868;51.326;6.550;2022-11-18T17:03:54;12.95;;;8.43;;
61915;SDS011;47868;51.326;6.550;2022-11-18T17:06:21;12.88;;;7.43;;